createdAt,value
2018-03-25T00:00:42.152Z,18.3
2018-03-25T00:01:42.163Z,18.27
2018-03-25T00:02:42.137Z,18.26
2018-03-25T00:03:42.152Z,18.3
2018-03-25T00:04:42.151Z,18.26
2018-03-25T00:05:42.177Z,18.26
2018-03-25T00:06:42.191Z,18.29
2018-03-25T00:07:42.148Z,18.26
2018-03-25T00:08:42.142Z,18.25
2018-03-25T00:09:42.152Z,18.29
2018-03-25T00:10:42.155Z,18.25
2018-03-25T00:11:42.178Z,18.24
2018-03-25T00:12:42.168Z,18.26
2018-03-25T00:13:42.139Z,18.23
2018-03-25T00:14:42.186Z,18.22
2018-03-25T00:15:42.150Z,18.26
2018-03-25T00:16:42.175Z,18.22
2018-03-25T00:17:42.219Z,18.21
2018-03-25T00:18:42.149Z,18.23
2018-03-25T00:19:42.149Z,18.2
2018-03-25T00:20:42.210Z,18.19
2018-03-25T00:21:42.176Z,18.22
2018-03-25T00:22:42.137Z,18.19
2018-03-25T00:23:42.189Z,18.17
2018-03-25T00:24:42.142Z,18.2
2018-03-25T00:25:42.142Z,18.17
2018-03-25T00:26:42.189Z,18.18
2018-03-25T00:27:42.156Z,18.21
2018-03-25T00:28:42.145Z,18.18
2018-03-25T00:29:42.135Z,18.17
2018-03-25T00:30:42.205Z,18.19
2018-03-25T00:31:42.422Z,18.14
2018-03-25T00:32:42.183Z,18.14
2018-03-25T00:33:42.144Z,18.18
2018-03-25T00:34:42.142Z,18.13
2018-03-25T00:35:42.159Z,18.13
2018-03-25T00:36:42.167Z,18.17
2018-03-25T00:37:42.146Z,18.13
2018-03-25T00:38:42.131Z,18.12
2018-03-25T00:39:42.133Z,18.15
2018-03-25T00:40:42.177Z,18.1
2018-03-25T00:41:42.185Z,18.11
2018-03-25T00:42:42.166Z,18.13
2018-03-25T00:43:42.136Z,18.11
2018-03-25T00:44:42.124Z,18.08
2018-03-25T00:45:42.152Z,18.12
2018-03-25T00:46:42.134Z,18.1
2018-03-25T00:47:42.184Z,18.08
2018-03-25T00:48:42.167Z,18.12
2018-03-25T00:49:42.140Z,18.07
2018-03-25T00:50:42.309Z,18.08
2018-03-25T00:51:42.129Z,18.11
2018-03-25T00:52:42.132Z,18.07
2018-03-25T00:53:42.179Z,18.07
2018-03-25T00:54:42.167Z,18.09
2018-03-25T00:55:42.158Z,18.06
2018-03-25T00:56:42.132Z,18.04
2018-03-25T00:57:42.141Z,18.09
2018-03-25T00:58:42.132Z,18.04
2018-03-25T00:59:42.136Z,18.02
2018-03-25T01:00:42.133Z,18.07
2018-03-25T01:01:42.355Z,18.02
2018-03-25T01:02:42.158Z,18.01
2018-03-25T01:03:42.126Z,18.07
2018-03-25T01:04:42.135Z,18.03
2018-03-25T01:05:42.119Z,18.01
2018-03-25T01:06:42.160Z,18.05
2018-03-25T01:07:42.206Z,18.02
2018-03-25T01:08:42.175Z,18.01
2018-03-25T01:09:42.128Z,18.04
2018-03-25T01:10:42.139Z,18.01
2018-03-25T01:11:42.166Z,18.03
2018-03-25T01:12:46.001Z,18.05
2018-03-25T01:13:42.157Z,18.01
2018-03-25T01:14:42.204Z,18
2018-03-25T01:15:42.146Z,18.04
2018-03-25T01:16:42.161Z,17.99
2018-03-25T01:17:42.151Z,17.96
2018-03-25T01:18:42.199Z,18.02
2018-03-25T01:19:42.202Z,18
2018-03-25T01:20:42.148Z,17.95
2018-03-25T01:21:42.205Z,18.01
2018-03-25T01:22:42.173Z,17.97
2018-03-25T01:23:42.169Z,17.94
2018-03-25T01:24:42.177Z,18
2018-03-25T01:25:42.135Z,17.95
2018-03-25T01:26:42.192Z,17.96
2018-03-25T01:27:42.187Z,17.99
2018-03-25T01:28:42.173Z,17.95
2018-03-25T01:29:42.178Z,17.93
2018-03-25T01:30:42.172Z,17.98
2018-03-25T01:31:42.182Z,17.94
2018-03-25T01:32:42.175Z,17.93
2018-03-25T01:33:42.138Z,17.97
2018-03-25T01:34:42.138Z,17.94
2018-03-25T01:35:42.150Z,17.93
2018-03-25T01:36:42.168Z,17.97
2018-03-25T01:37:42.166Z,17.94
2018-03-25T01:38:42.177Z,17.94
2018-03-25T01:39:42.176Z,17.98
2018-03-25T01:40:42.162Z,17.93
2018-03-25T01:41:42.163Z,17.93
2018-03-25T01:42:42.138Z,17.96
2018-03-25T01:43:42.147Z,17.92
2018-03-25T01:44:42.196Z,17.91
2018-03-25T01:45:42.164Z,17.95
2018-03-25T01:46:42.163Z,17.91
2018-03-25T01:47:42.142Z,17.91
2018-03-25T01:48:42.184Z,17.94
2018-03-25T01:49:42.250Z,17.9
2018-03-25T01:50:42.152Z,17.89
2018-03-25T01:51:42.162Z,17.93
2018-03-25T01:52:42.161Z,17.9
2018-03-25T01:53:42.133Z,17.89
2018-03-25T01:54:42.231Z,17.91
2018-03-25T01:55:42.280Z,17.89
2018-03-25T01:56:42.174Z,17.88
2018-03-25T01:57:42.133Z,17.9
2018-03-25T01:58:42.157Z,17.88
2018-03-25T01:59:42.145Z,17.88
2018-03-25T02:00:42.128Z,17.91
2018-03-25T02:01:42.156Z,17.88
2018-03-25T02:02:42.168Z,17.86
2018-03-25T02:03:42.127Z,17.89
2018-03-25T02:04:42.119Z,17.87
2018-03-25T02:05:42.138Z,17.85
2018-03-25T02:06:42.126Z,17.88
2018-03-25T02:07:42.150Z,17.85
2018-03-25T02:08:42.155Z,17.85
2018-03-25T02:09:42.169Z,17.87
2018-03-25T02:10:42.117Z,17.85
2018-03-25T02:11:42.134Z,17.84
2018-03-25T02:12:42.166Z,17.87
2018-03-25T02:13:42.156Z,17.86
2018-03-25T02:14:42.139Z,17.85
2018-03-25T02:15:42.170Z,17.87
2018-03-25T02:16:42.171Z,17.84
2018-03-25T02:17:42.158Z,17.83
2018-03-25T02:18:42.178Z,17.85
2018-03-25T02:19:42.152Z,17.81
2018-03-25T02:20:42.199Z,17.82
2018-03-25T02:21:42.119Z,17.86
2018-03-25T02:22:42.173Z,17.82
2018-03-25T02:23:42.158Z,17.81
2018-03-25T02:24:42.154Z,17.83
2018-03-25T02:25:42.160Z,17.82
2018-03-25T02:26:42.132Z,17.82
2018-03-25T02:27:42.156Z,17.86
2018-03-25T02:28:42.168Z,17.8
2018-03-25T02:29:42.130Z,17.8
2018-03-25T02:30:42.114Z,17.83
2018-03-25T02:31:42.143Z,17.8
2018-03-25T02:32:42.403Z,17.79
2018-03-25T02:33:42.168Z,17.82
2018-03-25T02:34:42.151Z,17.8
2018-03-25T02:35:42.128Z,17.78
2018-03-25T02:36:42.147Z,17.82
2018-03-25T02:37:42.134Z,17.78
2018-03-25T02:38:42.140Z,17.77
2018-03-25T02:39:42.111Z,17.79
2018-03-25T02:40:42.145Z,17.77
2018-03-25T02:41:42.137Z,17.78
2018-03-25T02:42:42.144Z,17.8
2018-03-25T02:43:42.185Z,17.78
2018-03-25T02:44:42.146Z,17.76
2018-03-25T02:45:42.141Z,17.79
2018-03-25T02:46:42.111Z,17.76
2018-03-25T02:47:42.151Z,17.76
2018-03-25T02:48:42.190Z,17.78
2018-03-25T02:49:42.149Z,17.75
2018-03-25T02:50:42.157Z,17.75
2018-03-25T02:51:42.206Z,17.77
2018-03-25T02:52:42.107Z,17.74
2018-03-25T02:53:42.192Z,17.73
2018-03-25T02:54:42.270Z,17.76
2018-03-25T02:55:42.191Z,17.72
2018-03-25T02:56:42.139Z,17.72
2018-03-25T02:57:42.106Z,17.76
2018-03-25T02:58:42.176Z,17.73
2018-03-25T02:59:42.153Z,17.73
2018-03-25T03:00:42.148Z,17.76
2018-03-25T03:01:42.143Z,17.72
2018-03-25T03:02:42.150Z,17.71
2018-03-25T03:03:42.133Z,17.73
2018-03-25T03:04:42.152Z,17.7
2018-03-25T03:05:42.129Z,17.7
2018-03-25T03:06:42.131Z,17.72
2018-03-25T03:07:42.096Z,17.69
2018-03-25T03:08:42.140Z,17.68
2018-03-25T03:09:42.132Z,17.71
2018-03-25T03:10:42.167Z,17.7
2018-03-25T03:11:42.136Z,17.68
2018-03-25T03:12:42.137Z,17.7
2018-03-25T03:13:42.121Z,17.68
2018-03-25T03:14:42.133Z,17.66
2018-03-25T03:15:42.120Z,17.7
2018-03-25T03:16:42.138Z,17.67
2018-03-25T03:17:42.116Z,17.68
2018-03-25T03:18:42.145Z,17.69
2018-03-25T03:19:42.127Z,17.67
2018-03-25T03:20:42.146Z,17.67
2018-03-25T03:21:42.142Z,17.71
2018-03-25T03:22:42.180Z,17.66
2018-03-25T03:23:42.140Z,17.66
2018-03-25T03:24:42.160Z,17.69
2018-03-25T03:25:42.105Z,17.66
2018-03-25T03:26:42.132Z,17.66
2018-03-25T03:27:42.130Z,17.68
2018-03-25T03:28:42.164Z,17.66
2018-03-25T03:29:42.104Z,17.65
2018-03-25T03:30:42.137Z,17.69
2018-03-25T03:31:42.132Z,17.68
2018-03-25T03:32:42.128Z,17.65
2018-03-25T03:33:42.121Z,17.68
2018-03-25T03:34:42.144Z,17.63
2018-03-25T03:35:42.128Z,17.63
2018-03-25T03:36:42.126Z,17.65
2018-03-25T03:37:42.092Z,17.63
2018-03-25T03:38:42.147Z,17.62
2018-03-25T03:39:42.089Z,17.66
2018-03-25T03:40:42.094Z,17.62
2018-03-25T03:41:42.108Z,17.61
2018-03-25T03:42:42.093Z,17.64
2018-03-25T03:43:42.137Z,17.61
2018-03-25T03:44:42.129Z,17.6
2018-03-25T03:45:42.094Z,17.63
2018-03-25T03:46:42.100Z,17.61
2018-03-25T03:47:42.151Z,17.59
2018-03-25T03:48:42.124Z,17.63
2018-03-25T03:49:42.123Z,17.59
2018-03-25T03:50:42.117Z,17.57
2018-03-25T03:51:42.113Z,17.61
2018-03-25T03:52:42.086Z,17.6
2018-03-25T03:53:42.207Z,17.6
2018-03-25T03:54:42.125Z,17.62
2018-03-25T03:55:42.213Z,17.61
2018-03-25T03:56:42.206Z,17.61
2018-03-25T03:57:42.133Z,17.64
2018-03-25T03:58:42.106Z,17.64
2018-03-25T03:59:42.116Z,17.65
2018-03-25T04:00:42.087Z,17.67
2018-03-25T04:01:42.060Z,17.67
2018-03-25T04:02:42.091Z,17.69
2018-03-25T04:03:42.109Z,17.7
2018-03-25T04:04:42.173Z,17.68
2018-03-25T04:05:42.123Z,17.71
2018-03-25T04:06:42.128Z,17.72
2018-03-25T04:07:42.116Z,17.73
2018-03-25T04:08:42.098Z,17.77
2018-03-25T04:09:42.147Z,17.77
2018-03-25T04:10:42.136Z,17.78
2018-03-25T04:11:42.102Z,17.79
2018-03-25T04:12:42.124Z,17.79
2018-03-25T04:13:42.128Z,17.81
2018-03-25T04:14:42.125Z,17.82
2018-03-25T04:15:42.122Z,17.81
2018-03-25T04:16:42.108Z,17.83
2018-03-25T04:17:42.093Z,17.86
2018-03-25T04:18:42.107Z,17.87
2018-03-25T04:19:42.141Z,17.88
2018-03-25T04:20:42.263Z,17.89
2018-03-25T04:21:42.138Z,17.9
2018-03-25T04:22:42.098Z,17.92
2018-03-25T04:23:42.122Z,17.94
2018-03-25T04:24:42.179Z,17.95
2018-03-25T04:25:42.140Z,17.97
2018-03-25T04:26:42.113Z,17.99
2018-03-25T04:27:42.119Z,18
2018-03-25T04:28:42.112Z,18.03
2018-03-25T04:29:42.098Z,18.04
2018-03-25T04:30:42.124Z,18.06
2018-03-25T04:31:42.118Z,18.08
2018-03-25T04:32:42.104Z,18.09
2018-03-25T04:33:42.100Z,18.1
2018-03-25T04:34:42.114Z,18.12
2018-03-25T04:35:42.099Z,18.14
2018-03-25T04:36:42.139Z,18.14
2018-03-25T04:37:42.100Z,18.16
2018-03-25T04:38:42.099Z,18.18
2018-03-25T04:39:42.118Z,18.18
2018-03-25T04:40:42.090Z,18.21
2018-03-25T04:41:42.098Z,18.22
2018-03-25T04:42:42.073Z,18.22
2018-03-25T04:43:42.101Z,18.24
2018-03-25T04:44:42.099Z,18.26
2018-03-25T04:45:42.102Z,18.26
2018-03-25T04:46:42.093Z,18.27
2018-03-25T04:47:42.112Z,18.29
2018-03-25T04:48:42.123Z,18.3
2018-03-25T04:49:42.124Z,18.31
2018-03-25T04:50:42.104Z,18.33
2018-03-25T04:51:42.094Z,18.33
2018-03-25T04:52:42.101Z,18.35
2018-03-25T04:53:42.066Z,18.37
2018-03-25T04:54:42.119Z,18.37
2018-03-25T04:55:42.171Z,18.38
2018-03-25T04:56:42.082Z,18.39
2018-03-25T04:57:42.078Z,18.4
2018-03-25T04:58:42.125Z,18.42
2018-03-25T04:59:42.084Z,18.43
2018-03-25T05:00:42.090Z,18.43
2018-03-25T05:01:42.106Z,18.44
2018-03-25T05:02:42.136Z,18.46
2018-03-25T05:03:42.119Z,18.47
2018-03-25T05:04:42.114Z,18.46
2018-03-25T05:05:42.096Z,18.48
2018-03-25T05:06:42.099Z,18.48
2018-03-25T05:07:42.116Z,18.5
2018-03-25T05:08:42.078Z,18.52
2018-03-25T05:09:42.099Z,18.52
2018-03-25T05:10:42.093Z,18.52
2018-03-25T05:11:42.086Z,18.54
2018-03-25T05:12:42.098Z,18.54
2018-03-25T05:13:42.107Z,18.57
2018-03-25T05:14:42.084Z,18.57
2018-03-25T05:15:42.120Z,18.57
2018-03-25T05:16:42.080Z,18.58
2018-03-25T05:17:42.101Z,18.6
2018-03-25T05:18:42.099Z,18.6
2018-03-25T05:19:42.082Z,18.59
2018-03-25T05:20:42.084Z,18.62
2018-03-25T05:21:42.091Z,18.62
2018-03-25T05:22:42.106Z,18.64
2018-03-25T05:23:42.068Z,18.64
2018-03-25T05:24:42.111Z,18.64
2018-03-25T05:25:42.106Z,18.66
2018-03-25T05:26:42.133Z,18.67
2018-03-25T05:27:42.087Z,18.67
2018-03-25T05:28:42.086Z,18.67
2018-03-25T05:29:42.068Z,18.7
2018-03-25T05:30:42.077Z,18.69
2018-03-25T05:31:42.079Z,18.7
2018-03-25T05:32:42.092Z,18.7
2018-03-25T05:33:42.093Z,18.72
2018-03-25T05:34:42.113Z,18.72
2018-03-25T05:35:42.079Z,18.73
2018-03-25T05:36:42.077Z,18.73
2018-03-25T05:37:42.078Z,18.75
2018-03-25T05:38:42.059Z,18.75
2018-03-25T05:39:42.092Z,18.76
2018-03-25T05:40:42.119Z,18.77
2018-03-25T05:41:42.076Z,18.78
2018-03-25T05:42:42.075Z,18.77
2018-03-25T05:43:42.073Z,18.78
2018-03-25T05:44:42.070Z,18.8
2018-03-25T05:45:42.080Z,18.8
2018-03-25T05:46:42.078Z,18.8
2018-03-25T05:47:42.054Z,18.82
2018-03-25T05:48:42.081Z,18.81
2018-03-25T05:49:42.094Z,18.82
2018-03-25T05:50:42.070Z,18.83
2018-03-25T05:51:42.076Z,18.83
2018-03-25T05:52:42.107Z,18.84
2018-03-25T05:53:42.061Z,18.85
2018-03-25T05:54:42.093Z,18.85
2018-03-25T05:55:42.042Z,18.86
2018-03-25T05:56:42.187Z,18.87
2018-03-25T05:57:42.200Z,18.87
2018-03-25T05:58:42.021Z,18.87
2018-03-25T05:59:42.092Z,18.89
2018-03-25T06:00:42.058Z,18.88
2018-03-25T06:01:42.070Z,18.89
2018-03-25T06:02:42.060Z,18.89
2018-03-25T06:03:42.105Z,18.89
2018-03-25T06:04:42.150Z,18.9
2018-03-25T06:05:42.080Z,18.9
2018-03-25T06:06:42.052Z,18.91
2018-03-25T06:07:42.074Z,18.91
2018-03-25T06:08:42.059Z,18.92
2018-03-25T06:09:42.094Z,18.92
2018-03-25T06:10:42.089Z,18.92
2018-03-25T06:11:42.100Z,18.92
2018-03-25T06:12:42.076Z,18.93
2018-03-25T06:13:42.085Z,18.93
2018-03-25T06:14:42.050Z,18.93
2018-03-25T06:15:42.070Z,18.93
2018-03-25T06:16:42.097Z,18.93
2018-03-25T06:17:42.039Z,18.95
2018-03-25T06:18:42.084Z,18.94
2018-03-25T06:19:42.115Z,18.95
2018-03-25T06:20:42.089Z,18.96
2018-03-25T06:21:42.076Z,18.97
2018-03-25T06:22:42.068Z,18.97
2018-03-25T06:23:42.072Z,18.98
2018-03-25T06:24:42.060Z,18.97
2018-03-25T06:25:42.043Z,18.98
2018-03-25T06:26:42.082Z,18.98
2018-03-25T06:27:42.046Z,18.98
2018-03-25T06:28:42.080Z,18.98
2018-03-25T06:29:42.110Z,18.99
2018-03-25T06:30:42.033Z,18.98
2018-03-25T06:31:42.070Z,18.99
2018-03-25T06:32:42.084Z,19
2018-03-25T06:33:42.030Z,19
2018-03-25T06:34:42.061Z,19.01
2018-03-25T06:35:42.071Z,19.01
2018-03-25T06:36:42.058Z,19
2018-03-25T06:37:42.064Z,19.02
2018-03-25T06:38:42.064Z,19.02
2018-03-25T06:39:42.099Z,19.02
2018-03-25T06:40:42.088Z,19.04
2018-03-25T06:41:42.049Z,19.04
2018-03-25T06:42:42.022Z,19.03
2018-03-25T06:43:42.065Z,19.04
2018-03-25T06:44:42.100Z,19.05
2018-03-25T06:45:42.047Z,19.03
2018-03-25T06:46:42.063Z,19.05
2018-03-25T06:47:42.077Z,19.04
2018-03-25T06:48:42.029Z,19.05
2018-03-25T06:49:42.050Z,19.06
2018-03-25T06:50:42.043Z,19.06
2018-03-25T06:51:42.082Z,19.05
2018-03-25T06:52:42.078Z,19.06
2018-03-25T06:53:42.053Z,19.07
2018-03-25T06:54:42.058Z,19.07
2018-03-25T06:55:42.066Z,19.07
2018-03-25T06:56:42.064Z,19.07
2018-03-25T06:57:42.023Z,19.08
2018-03-25T06:58:42.030Z,19.07
2018-03-25T06:59:42.107Z,19.09
2018-03-25T07:00:42.066Z,19.09
2018-03-25T07:01:42.019Z,19.09
2018-03-25T07:02:42.079Z,19.09
2018-03-25T07:03:42.064Z,19.07
2018-03-25T07:04:42.066Z,19.09
2018-03-25T07:05:42.069Z,19.11
2018-03-25T07:06:42.032Z,19.08
2018-03-25T07:07:42.049Z,19.1
2018-03-25T07:08:42.093Z,19.11
2018-03-25T07:09:42.089Z,19.11
2018-03-25T07:10:42.023Z,19.12
2018-03-25T07:11:42.070Z,19.12
2018-03-25T07:12:42.048Z,19.11
2018-03-25T07:13:42.051Z,19.12
2018-03-25T07:14:42.112Z,19.13
2018-03-25T07:15:42.078Z,19.12
2018-03-25T07:16:42.070Z,19.13
2018-03-25T07:17:42.068Z,19.13
2018-03-25T07:18:42.038Z,19.13
2018-03-25T07:19:42.015Z,19.14
2018-03-25T07:20:42.051Z,19.15
2018-03-25T07:21:42.049Z,19.13
2018-03-25T07:22:42.055Z,19.14
2018-03-25T07:23:42.038Z,19.16
2018-03-25T07:24:42.043Z,19.15
2018-03-25T07:25:42.057Z,19.15
2018-03-25T07:26:42.033Z,19.16
2018-03-25T07:27:42.067Z,19.15
2018-03-25T07:28:42.054Z,19.16
2018-03-25T07:29:42.052Z,19.17
2018-03-25T07:30:42.101Z,19.16
2018-03-25T07:31:42.064Z,19.17
2018-03-25T07:32:42.063Z,19.18
2018-03-25T07:33:42.051Z,19.17
2018-03-25T07:34:42.055Z,19.19
2018-03-25T07:35:42.029Z,19.19
2018-03-25T07:36:42.061Z,19.18
2018-03-25T07:37:42.039Z,19.19
2018-03-25T07:38:42.044Z,19.19
2018-03-25T07:39:42.008Z,19.2
2018-03-25T07:40:42.048Z,19.2
2018-03-25T07:41:42.071Z,19.22
2018-03-25T07:42:42.053Z,19.21
2018-03-25T07:43:42.044Z,19.21
2018-03-25T07:44:42.053Z,19.22
2018-03-25T07:45:42.046Z,19.21
2018-03-25T07:46:42.079Z,19.22
2018-03-25T07:47:42.036Z,19.24
2018-03-25T07:48:42.067Z,19.23
2018-03-25T07:49:42.043Z,19.23
2018-03-25T07:50:42.027Z,19.23
2018-03-25T07:51:42.033Z,19.23
2018-03-25T07:52:42.015Z,19.24
2018-03-25T07:53:42.050Z,19.25
2018-03-25T07:54:42.045Z,19.24
2018-03-25T07:55:42.039Z,19.25
2018-03-25T07:56:42.045Z,19.26
2018-03-25T07:57:42.107Z,19.27
2018-03-25T07:58:42.135Z,19.26
2018-03-25T07:59:42.018Z,19.27
2018-03-25T08:00:42.056Z,19.27
2018-03-25T08:01:42.073Z,19.27
2018-03-25T08:02:42.027Z,19.27
2018-03-25T08:03:42.005Z,19.27
2018-03-25T08:04:42.047Z,19.27
2018-03-25T08:05:42.022Z,19.27
2018-03-25T08:06:42.030Z,19.27
2018-03-25T08:07:42.041Z,19.28
2018-03-25T08:08:42.025Z,19.29
2018-03-25T08:09:42.050Z,19.27
2018-03-25T08:10:41.996Z,19.29
2018-03-25T08:11:42.017Z,19.3
2018-03-25T08:12:42.000Z,19.29
2018-03-25T08:13:42.068Z,19.3
2018-03-25T08:14:42.012Z,19.31
2018-03-25T08:15:41.996Z,19.3
2018-03-25T08:16:42.032Z,19.3
2018-03-25T08:17:42.039Z,19.32
2018-03-25T08:18:42.032Z,19.3
2018-03-25T08:19:42.034Z,19.3
2018-03-25T08:20:42.081Z,19.31
2018-03-25T08:21:42.051Z,19.31
2018-03-25T08:22:42.049Z,19.31
2018-03-25T08:23:42.058Z,19.31
2018-03-25T08:24:42.038Z,19.3
2018-03-25T08:25:42.000Z,19.31
2018-03-25T08:26:42.032Z,19.31
2018-03-25T08:27:41.990Z,19.29
2018-03-25T08:28:42.024Z,19.31
2018-03-25T08:29:42.046Z,19.31
2018-03-25T08:30:42.023Z,19.3
2018-03-25T08:31:42.045Z,19.31
2018-03-25T08:32:42.027Z,19.31
2018-03-25T08:33:42.001Z,19.29
2018-03-25T08:34:42.040Z,19.28
2018-03-25T08:35:42.037Z,19.31
2018-03-25T08:36:42.021Z,19.29
2018-03-25T08:37:41.996Z,19.29
2018-03-25T08:38:42.105Z,19.31
2018-03-25T08:39:42.018Z,19.28
2018-03-25T08:40:42.013Z,19.3
2018-03-25T08:41:42.035Z,19.31
2018-03-25T08:42:41.999Z,19.29
2018-03-25T08:43:42.000Z,19.3
2018-03-25T08:44:42.033Z,19.3
2018-03-25T08:45:42.094Z,19.22
2018-03-25T08:46:42.028Z,18.88
2018-03-25T08:47:42.048Z,18.8
2018-03-25T08:48:41.995Z,18.78
2018-03-25T08:49:41.997Z,18.51
2018-03-25T08:50:42.015Z,18.3
2018-03-25T08:51:42.028Z,18.25
2018-03-25T08:52:41.987Z,18.22
2018-03-25T08:53:42.038Z,18.07
2018-03-25T08:54:41.990Z,18.07
2018-03-25T08:55:42.089Z,17.94
2018-03-25T08:56:42.027Z,17.84
2018-03-25T08:57:42.078Z,17.86
2018-03-25T08:58:42.008Z,17.8
2018-03-25T08:59:42.023Z,17.78
2018-03-25T09:00:42.028Z,17.89
2018-03-25T09:01:42.091Z,17.98
2018-03-25T09:02:42.022Z,18.07
2018-03-25T09:03:42.003Z,18.13
2018-03-25T09:04:42.038Z,18.2
2018-03-25T09:05:42.045Z,18.26
2018-03-25T09:06:42.050Z,18.32
2018-03-25T09:07:42.035Z,18.37
2018-03-25T09:08:42.032Z,18.41
2018-03-25T09:09:42.019Z,18.44
2018-03-25T09:10:41.975Z,18.48
2018-03-25T09:11:42.060Z,18.52
2018-03-25T09:12:41.975Z,18.54
2018-03-25T09:13:42.034Z,18.57
2018-03-25T09:14:42.051Z,18.58
2018-03-25T09:15:42.030Z,18.6
2018-03-25T09:16:42.011Z,18.64
2018-03-25T09:17:42.026Z,18.67
2018-03-25T09:18:42.033Z,18.7
2018-03-25T09:19:42.014Z,18.73
2018-03-25T09:20:42.050Z,18.74
2018-03-25T09:21:42.020Z,18.77
2018-03-25T09:22:41.982Z,18.81
2018-03-25T09:23:42.073Z,18.86
2018-03-25T09:24:42.019Z,18.89
2018-03-25T09:25:42.012Z,18.91
2018-03-25T09:26:41.995Z,18.95
2018-03-25T09:27:42.030Z,18.99
2018-03-25T09:28:42.035Z,19
2018-03-25T09:29:42.001Z,19.03
2018-03-25T09:30:42.011Z,19.05
2018-03-25T09:31:42.007Z,19.07
2018-03-25T09:32:41.995Z,19.09
2018-03-25T09:33:42.010Z,19.11
2018-03-25T09:34:42.010Z,19.13
2018-03-25T09:35:42.008Z,19.15
2018-03-25T09:36:41.973Z,19.15
2018-03-25T09:37:41.991Z,19.16
2018-03-25T09:38:41.989Z,19.18
2018-03-25T09:39:41.971Z,19.17
2018-03-25T09:40:41.976Z,19.18
2018-03-25T09:41:41.993Z,19.17
2018-03-25T09:42:41.990Z,19.17
2018-03-25T09:43:41.974Z,19.19
2018-03-25T09:44:42.006Z,19.22
2018-03-25T09:45:42.000Z,19.22
2018-03-25T09:46:41.963Z,19.22
2018-03-25T09:47:41.987Z,19.24
2018-03-25T09:48:42.025Z,19.24
2018-03-25T09:49:42.002Z,19.26
2018-03-25T09:50:41.986Z,19.28
2018-03-25T09:51:42.002Z,19.27
2018-03-25T09:52:41.974Z,19.29
2018-03-25T09:53:41.995Z,19.3
2018-03-25T09:54:42.012Z,19.31
2018-03-25T09:55:42.008Z,19.31
2018-03-25T09:56:42.002Z,19.32
2018-03-25T09:57:41.964Z,19.33
2018-03-25T09:58:42.089Z,19.34
2018-03-25T09:59:42.126Z,19.34
2018-03-25T10:00:42.002Z,19.34
2018-03-25T10:01:42.044Z,19.35
2018-03-25T10:02:42.052Z,19.35
2018-03-25T10:03:41.966Z,19.35
2018-03-25T10:04:42.117Z,19.37
2018-03-25T10:05:41.997Z,19.39
2018-03-25T10:06:42.030Z,19.39
2018-03-25T10:07:41.967Z,19.4
2018-03-25T10:08:41.986Z,19.4
2018-03-25T10:09:42.024Z,19.39
2018-03-25T10:10:41.962Z,19.41
2018-03-25T10:11:42.008Z,19.42
2018-03-25T10:12:41.992Z,19.41
2018-03-25T10:13:42.009Z,19.41
2018-03-25T10:14:42.054Z,19.43
2018-03-25T10:15:41.991Z,19.43
2018-03-25T10:16:41.966Z,19.43
2018-03-25T10:17:41.982Z,19.44
2018-03-25T10:18:41.993Z,19.46
2018-03-25T10:19:00.490Z,19.56
2018-03-25T10:19:46.784Z,19.66
2018-03-25T10:20:46.771Z,19.7
2018-03-25T10:21:46.783Z,19.74
2018-03-25T10:22:46.752Z,19.79
2018-03-25T10:23:46.776Z,19.82
2018-03-25T10:24:46.790Z,19.83
2018-03-25T10:25:46.799Z,19.86
2018-03-25T10:26:46.816Z,19.91
2018-03-25T10:27:46.863Z,19.94
2018-03-25T10:28:46.766Z,19.97
2018-03-25T10:29:46.791Z,20
2018-03-25T10:30:46.765Z,20.03
2018-03-25T10:31:46.758Z,20.03
2018-03-25T10:32:18.661Z,20.06
2018-03-25T10:33:18.759Z,20.07
2018-03-25T10:34:18.726Z,20.1
2018-03-25T10:35:18.692Z,20.1
2018-03-25T10:36:18.769Z,20.12
2018-03-25T10:37:18.720Z,20.13
2018-03-25T10:38:18.742Z,20.17
2018-03-25T10:39:18.727Z,20.17
2018-03-25T10:40:18.719Z,20.16
2018-03-25T10:40:59.007Z,20.19
2018-03-25T10:41:58.983Z,20.2
2018-03-25T10:42:58.967Z,20.2
2018-03-25T10:43:58.975Z,20.2
2018-03-25T10:44:58.986Z,20.21
2018-03-25T10:45:58.966Z,20.24
2018-03-25T10:46:59.001Z,20.24
2018-03-25T10:47:58.971Z,20.24
2018-03-25T10:48:58.975Z,20.24
2018-03-25T10:49:58.954Z,20.23
2018-03-25T10:50:58.981Z,20.27
2018-03-25T10:51:58.977Z,20.24
2018-03-25T10:52:58.988Z,20.24
2018-03-25T10:53:58.993Z,20.34
2018-03-25T10:54:58.989Z,20.36
2018-03-25T10:55:59.013Z,20.36
2018-03-25T10:56:59.005Z,20.37
2018-03-25T10:57:59.001Z,20.36
2018-03-25T10:58:58.984Z,20.36
2018-03-25T10:59:59.000Z,20.37
2018-03-25T11:00:58.997Z,20.36
2018-03-25T11:01:59.089Z,20.37
2018-03-25T11:02:59.128Z,20.38
2018-03-25T11:03:59.030Z,20.37
2018-03-25T11:04:59.028Z,20.38
2018-03-25T11:05:59.063Z,20.42
2018-03-25T11:10:24.499Z,20.38
2018-03-25T11:11:24.525Z,20.43
2018-03-25T11:12:03.060Z,20.45
2018-03-25T11:12:41.098Z,20.52
2018-03-25T11:13:41.153Z,20.39
2018-03-25T11:14:41.159Z,20.34
2018-03-25T11:15:41.184Z,20.27
2018-03-25T11:16:41.100Z,20.25
2018-03-25T11:17:41.124Z,20.19
2018-03-25T11:18:41.158Z,20.13
2018-03-25T11:19:41.143Z,20.11
2018-03-25T11:20:41.171Z,20.06
2018-03-25T11:21:41.104Z,20.02
2018-03-25T11:22:41.130Z,20
2018-03-25T11:23:41.138Z,19.96
2018-03-25T11:24:41.159Z,19.93
2018-03-25T11:25:41.071Z,19.92
2018-03-25T11:26:41.101Z,19.89
2018-03-25T11:27:41.185Z,19.89
2018-03-25T11:28:41.076Z,19.87
2018-03-25T11:29:41.096Z,19.86
2018-03-25T11:30:41.079Z,19.84
2018-03-25T11:31:41.091Z,19.83
2018-03-25T11:32:41.098Z,19.82
2018-03-25T11:33:41.068Z,19.81
2018-03-25T11:34:41.077Z,19.81
2018-03-25T11:35:41.066Z,19.8
2018-03-25T11:36:41.157Z,19.8
2018-03-25T11:37:41.093Z,19.79
2018-03-25T11:38:41.080Z,19.8
2018-03-25T11:39:41.080Z,19.79
2018-03-25T11:40:41.066Z,19.79
2018-03-25T11:41:41.065Z,19.79
2018-03-25T11:42:41.203Z,19.79
2018-03-25T11:43:41.200Z,19.79
2018-03-25T11:44:41.022Z,19.78
2018-03-25T11:45:41.058Z,19.78
2018-03-25T11:46:41.094Z,19.78
2018-03-25T11:47:41.073Z,19.78
2018-03-25T11:48:41.063Z,19.77
2018-03-25T11:49:41.092Z,19.78
2018-03-25T11:50:41.069Z,19.77
2018-03-25T11:51:41.145Z,19.76
2018-03-25T11:52:41.099Z,19.77
2018-03-25T11:53:41.076Z,19.77
2018-03-25T11:54:41.191Z,19.76
2018-03-25T11:55:41.096Z,19.76
2018-03-25T11:56:41.055Z,19.76
2018-03-25T11:57:41.135Z,19.77
2018-03-25T11:58:41.089Z,19.78
2018-03-25T11:59:41.095Z,19.76
2018-03-25T12:00:41.079Z,19.75
2018-03-25T12:01:41.057Z,19.74
2018-03-25T12:02:41.063Z,19.76
2018-03-25T12:03:41.086Z,19.74
2018-03-25T12:04:41.095Z,19.75
2018-03-25T12:05:41.074Z,19.75
2018-03-25T12:06:41.088Z,19.74
2018-03-25T12:07:41.369Z,19.73
2018-03-25T12:08:41.069Z,19.74
2018-03-25T12:09:41.096Z,19.75
2018-03-25T12:10:41.055Z,19.74
2018-03-25T12:11:41.055Z,19.74
2018-03-25T12:12:41.149Z,19.73
2018-03-25T12:13:41.137Z,19.74
2018-03-25T12:14:41.071Z,19.73
2018-03-25T12:15:41.072Z,19.74
2018-03-25T12:16:41.081Z,19.72
2018-03-25T12:17:41.088Z,19.73
2018-03-25T12:18:41.069Z,19.72
2018-03-25T12:19:41.074Z,19.72
2018-03-25T12:20:41.062Z,19.73
2018-03-25T12:21:41.116Z,19.73
2018-03-25T12:22:41.081Z,19.72
2018-03-25T12:23:41.052Z,19.73
2018-03-25T12:24:41.182Z,19.73
2018-03-25T12:25:41.087Z,19.73
2018-03-25T12:26:41.104Z,19.73
2018-03-25T12:27:41.118Z,19.73
2018-03-25T12:28:41.082Z,19.74
2018-03-25T12:29:41.076Z,19.74
2018-03-25T12:30:41.085Z,19.73
2018-03-25T12:31:41.051Z,19.73
2018-03-25T12:32:41.088Z,19.74
2018-03-25T12:33:41.077Z,19.75
2018-03-25T12:34:41.076Z,19.75
2018-03-25T12:35:41.084Z,19.75
2018-03-25T12:36:41.057Z,19.76
2018-03-25T12:37:41.044Z,19.79
2018-03-25T12:38:41.151Z,19.77
2018-03-25T12:39:41.132Z,19.76
2018-03-25T12:40:41.088Z,19.77
2018-03-25T12:41:41.086Z,19.78
2018-03-25T12:42:41.068Z,19.77
2018-03-25T12:43:41.103Z,19.78
2018-03-25T12:44:41.114Z,19.79
2018-03-25T12:45:41.070Z,19.74
2018-03-25T12:46:41.080Z,19.77
2018-03-25T12:47:41.066Z,19.78
2018-03-25T12:48:41.078Z,19.79
2018-03-25T12:49:41.071Z,19.78
2018-03-25T12:50:41.052Z,19.73
2018-03-25T12:51:41.065Z,19.73
2018-03-25T12:52:41.091Z,19.73
2018-03-25T12:53:41.068Z,19.72
2018-03-25T12:54:41.071Z,19.72
2018-03-25T12:55:41.168Z,19.74
2018-03-25T12:56:41.138Z,19.7